Terminal Aerodrome Forecast
Issued by NWS Charleston, WV

Current Version | Previous Version | Graphics & Text | Print | Product List | Glossary On
Versions: 1 2 3 4 5 6 7 8 9 10 11 12 13 14 15 16 17 18 19 20 21 22 23 24 25 26 27 28 29
000
FTUS41 KRLX 290800 AAA
TAFCRW
TAF AMD
KCRW 290900Z 2909/3006 25004KT 2SM BR FEW001 SCT070
      TEMPO 2909/2912 1/2SM FG VV001
     FM291200 00000KT 1SM BR SCT070
     FM291230 00000KT P6SM SCT080
     FM291900 32004KT P6SM SCT045=

USA.gov is the U.S. government's official web portal to all federal, state and local government web resources and services.